createdAt,value
2023-05-05T00:02:24.115Z,79.47
2023-05-05T00:04:52.971Z,79.58
2023-05-05T00:07:21.006Z,78.94
2023-05-05T00:09:49.351Z,77.94
2023-05-05T00:12:17.391Z,78.46
2023-05-05T00:14:45.453Z,79.70
2023-05-05T00:17:13.460Z,79.25
2023-05-05T00:19:43.040Z,79.68
2023-05-05T00:22:11.372Z,79.26
2023-05-05T00:24:39.637Z,79.00
2023-05-05T00:27:07.834Z,79.64
2023-05-05T00:29:36.782Z,79.11
2023-05-05T00:32:04.913Z,79.78
2023-05-05T00:34:33.208Z,80.05
2023-05-05T00:37:03.238Z,79.35
2023-05-05T00:39:31.197Z,80.18
2023-05-05T00:41:59.351Z,79.74
2023-05-05T00:44:40.152Z,78.95
2023-05-05T00:47:09.350Z,78.20
2023-05-05T00:49:39.242Z,79.35
2023-05-05T00:52:10.094Z,79.73
2023-05-05T00:54:39.090Z,78.88
2023-05-05T00:57:07.801Z,79.46
2023-05-05T00:59:37.874Z,77.70
2023-05-05T01:02:06.183Z,78.85
2023-05-05T01:04:37.224Z,79.68
2023-05-05T01:07:22.408Z,79.69
2023-05-05T01:10:10.951Z,79.21
2023-05-05T01:12:52.603Z,79.63
2023-05-05T01:15:31.364Z,80.39
2023-05-05T01:18:08.082Z,81.16
2023-05-05T01:20:41.864Z,80.82
2023-05-05T01:23:17.044Z,80.49
2023-05-05T01:26:06.809Z,80.94
2023-05-05T01:29:10.223Z,81.01
2023-05-05T01:31:51.754Z,79.83
2023-05-05T01:34:24.767Z,81.34
2023-05-05T01:36:59.753Z,81.27
2023-05-05T01:39:34.110Z,80.78
2023-05-05T01:42:05.822Z,81.53
2023-05-05T01:44:36.761Z,80.98
2023-05-05T01:47:07.679Z,81.86
2023-05-05T01:49:36.621Z,82.65
2023-05-05T01:52:06.079Z,81.85
2023-05-05T01:54:35.614Z,81.50
2023-05-05T01:57:05.792Z,82.09
2023-05-05T01:59:34.893Z,82.56
2023-05-05T02:02:04.226Z,82.54
2023-05-05T02:04:35.709Z,83.02
2023-05-05T02:07:05.851Z,83.94
2023-05-05T02:09:34.502Z,83.68
2023-05-05T02:12:03.194Z,82.88
2023-05-05T02:14:32.269Z,83.34
2023-05-05T02:17:01.507Z,81.51
2023-05-05T02:19:34.973Z,82.56
2023-05-05T02:22:04.574Z,82.91
2023-05-05T02:24:32.962Z,82.67
2023-05-05T02:27:03.743Z,83.78
2023-05-05T02:29:36.407Z,82.79
2023-05-05T02:32:08.073Z,83.10
2023-05-05T02:34:39.439Z,83.04
2023-05-05T02:37:16.688Z,83.22
2023-05-05T02:39:48.296Z,82.53
2023-05-05T02:42:23.253Z,82.28
2023-05-05T02:44:56.368Z,81.21
2023-05-05T02:47:29.876Z,82.54
2023-05-05T02:49:57.820Z,82.87
2023-05-05T02:52:27.515Z,82.66
2023-05-05T02:54:55.694Z,82.49
2023-05-05T02:57:29.010Z,82.25
2023-05-05T03:00:06.964Z,81.74
2023-05-05T03:02:45.812Z,82.52
2023-05-05T03:05:22.531Z,82.48
2023-05-05T03:07:56.972Z,82.85
2023-05-05T03:10:32.080Z,83.07
2023-05-05T03:13:04.140Z,83.05
2023-05-05T03:15:47.827Z,83.00
2023-05-05T03:18:19.306Z,83.88
2023-05-05T03:20:53.195Z,81.78
2023-05-05T03:23:22.920Z,82.09
2023-05-05T03:25:56.297Z,82.69
2023-05-05T03:28:34.717Z,82.86
2023-05-05T03:31:08.398Z,83.28
2023-05-05T03:33:38.924Z,84.15
2023-05-05T03:36:07.705Z,83.96
2023-05-05T03:38:37.590Z,83.29
2023-05-05T03:41:06.044Z,82.92
2023-05-05T03:43:34.649Z,83.60
2023-05-05T03:46:03.054Z,83.78
2023-05-05T03:48:31.480Z,83.72
2023-05-05T03:50:59.827Z,83.90
2023-05-05T03:53:30.617Z,84.73
2023-05-05T03:56:00.069Z,84.33
2023-05-05T03:58:28.092Z,85.22
2023-05-05T04:00:56.036Z,83.94
2023-05-05T04:03:24.487Z,83.79
2023-05-05T04:05:55.070Z,84.87
2023-05-05T04:08:23.744Z,84.72
2023-05-05T04:10:52.101Z,84.62
2023-05-05T04:13:24.125Z,85.84
2023-05-05T04:15:52.244Z,85.80
2023-05-05T04:18:20.832Z,85.52
2023-05-05T04:20:49.022Z,85.84
2023-05-05T04:23:17.766Z,85.63
2023-05-05T04:25:47.371Z,85.77
2023-05-05T04:28:16.377Z,85.87
2023-05-05T04:30:45.782Z,86.02
2023-05-05T04:33:14.044Z,85.61
2023-05-05T04:35:42.179Z,85.22
2023-05-05T04:38:10.197Z,84.81
2023-05-05T04:40:40.507Z,83.24
2023-05-05T04:43:09.881Z,81.92
2023-05-05T04:45:38.301Z,82.51
2023-05-05T04:48:08.622Z,83.11
2023-05-05T04:50:37.663Z,83.51
2023-05-05T04:53:05.627Z,83.28
2023-05-05T04:55:34.029Z,83.28
2023-05-05T04:58:02.193Z,81.80
2023-05-05T05:00:30.567Z,81.90
2023-05-05T05:02:58.741Z,81.01
2023-05-05T05:05:28.301Z,80.83
2023-05-05T05:07:56.994Z,80.79
2023-05-05T05:10:24.913Z,79.81
2023-05-05T05:12:52.885Z,80.55
2023-05-05T05:15:21.718Z,80.74
2023-05-05T05:17:49.746Z,78.22
2023-05-05T05:20:17.744Z,78.41
2023-05-05T05:22:47.100Z,78.18
2023-05-05T05:25:18.752Z,76.89
2023-05-05T05:27:58.496Z,77.35
2023-05-05T05:30:36.973Z,76.43
2023-05-05T05:33:07.175Z,75.39
2023-05-05T05:35:35.615Z,74.79
2023-05-05T05:38:07.961Z,74.56
2023-05-05T05:40:36.498Z,73.98
2023-05-05T05:43:24.812Z,72.56
2023-05-05T05:45:52.961Z,73.26
2023-05-05T05:48:24.773Z,72.28
2023-05-05T05:50:53.360Z,70.09
2023-05-05T05:53:22.961Z,69.38
2023-05-05T05:55:51.812Z,69.43
2023-05-05T05:58:20.627Z,66.61
2023-05-05T06:00:49.170Z,66.89
2023-05-05T06:03:17.540Z,65.90
2023-05-05T06:05:46.081Z,66.00
2023-05-05T06:08:15.327Z,66.14
2023-05-05T06:10:49.006Z,65.63
2023-05-05T06:13:19.859Z,63.38
2023-05-05T06:15:50.844Z,63.00
2023-05-05T06:18:19.348Z,62.67
2023-05-05T06:20:50.373Z,62.14
2023-05-05T06:23:19.333Z,60.15
2023-05-05T06:25:54.815Z,60.87
2023-05-05T06:28:22.840Z,60.89
2023-05-05T06:30:50.817Z,61.89
2023-05-05T06:33:18.751Z,61.22
2023-05-05T06:35:47.710Z,60.87
2023-05-05T06:38:15.682Z,60.91
2023-05-05T06:40:43.594Z,60.39
2023-05-05T06:43:12.867Z,58.62
2023-05-05T06:45:46.416Z,59.06
2023-05-05T06:48:14.361Z,58.19
2023-05-05T06:50:55.012Z,57.52
2023-05-05T06:53:29.374Z,57.49
2023-05-05T06:55:57.256Z,57.90
2023-05-05T06:58:26.818Z,57.47
2023-05-05T07:00:54.973Z,57.69
2023-05-05T07:03:23.223Z,56.69
2023-05-05T07:05:51.142Z,58.09
2023-05-05T07:08:19.069Z,57.64
2023-05-05T07:10:47.197Z,58.02
2023-05-05T07:13:17.231Z,56.77
2023-05-05T07:15:47.191Z,56.10
2023-05-05T07:18:15.987Z,57.24
2023-05-05T07:20:44.900Z,56.75
2023-05-05T07:23:12.834Z,57.90
2023-05-05T07:25:45.084Z,56.10
2023-05-05T07:28:13.783Z,56.23
2023-05-05T07:30:42.238Z,56.29
2023-05-05T07:33:12.201Z,57.41
2023-05-05T07:35:45.252Z,57.17
2023-05-05T07:38:13.409Z,56.44
2023-05-05T07:40:41.518Z,56.68
2023-05-05T07:43:09.647Z,56.26
2023-05-05T07:45:40.179Z,55.53
2023-05-05T07:48:08.273Z,56.04
2023-05-05T07:50:39.040Z,56.87
2023-05-05T07:53:14.530Z,56.81
2023-05-05T07:55:43.089Z,56.02
2023-05-05T07:58:11.790Z,56.22
2023-05-05T08:00:40.175Z,55.73
2023-05-05T08:03:11.317Z,55.27
2023-05-05T08:05:41.447Z,55.14
2023-05-05T08:08:09.580Z,54.64
2023-05-05T08:10:37.585Z,55.30
2023-05-05T08:13:05.573Z,54.42
2023-05-05T08:15:33.680Z,54.28
2023-05-05T08:21:15.672Z,53.84
2023-05-05T08:23:43.656Z,53.59
2023-05-05T08:26:11.643Z,53.29
2023-05-05T08:28:39.651Z,53.30
2023-05-05T08:31:09.432Z,52.85
2023-05-05T08:33:40.345Z,52.43
2023-05-05T08:36:08.881Z,52.63
2023-05-05T08:38:38.387Z,52.57
2023-05-05T08:41:09.390Z,52.47
2023-05-05T08:43:37.333Z,51.72
2023-05-05T08:46:06.022Z,51.45
2023-05-05T08:48:36.540Z,51.81
2023-05-05T08:51:07.763Z,51.52
2023-05-05T08:53:53.327Z,51.70
2023-05-05T08:56:23.056Z,51.24
2023-05-05T08:58:52.476Z,51.93
2023-05-05T09:01:22.062Z,51.08
2023-05-05T09:03:50.995Z,50.24
2023-05-05T09:06:22.016Z,50.28
2023-05-05T09:08:52.032Z,49.35
2023-05-05T09:11:19.948Z,49.91
2023-05-05T09:13:48.391Z,49.57
2023-05-05T09:16:16.396Z,48.71
2023-05-05T09:18:45.532Z,48.70
2023-05-05T09:21:21.460Z,48.88
2023-05-05T09:24:15.605Z,48.07
2023-05-05T09:26:44.841Z,48.85
2023-05-05T09:29:18.883Z,48.10
2023-05-05T09:32:05.266Z,47.82
2023-05-05T09:34:35.995Z,47.53
2023-05-05T09:37:05.920Z,47.39
2023-05-05T09:39:38.096Z,47.43
2023-05-05T09:42:06.185Z,47.44
2023-05-05T09:44:35.941Z,46.88
2023-05-05T09:47:09.366Z,46.70
2023-05-05T09:49:43.016Z,46.65
2023-05-05T09:52:15.735Z,46.69
2023-05-05T09:54:45.685Z,46.82
2023-05-05T10:00:10.574Z,47.09
2023-05-05T10:02:40.357Z,46.51
2023-05-05T10:05:13.436Z,46.62
2023-05-05T10:07:45.325Z,45.33
2023-05-05T10:10:16.676Z,45.16
2023-05-05T10:12:47.104Z,44.60
2023-05-05T10:15:17.027Z,45.16
2023-05-05T10:18:05.216Z,44.79
2023-05-05T10:20:39.558Z,43.63
2023-05-05T10:23:11.389Z,43.01
2023-05-05T10:25:47.968Z,43.08
2023-05-05T10:28:24.342Z,43.28
2023-05-05T10:30:57.899Z,44.10
2023-05-05T10:33:35.158Z,43.37
2023-05-05T10:36:07.828Z,43.16
2023-05-05T10:38:37.028Z,42.82
2023-05-05T10:41:07.236Z,41.57
2023-05-05T10:43:35.551Z,41.35
2023-05-05T10:46:04.044Z,40.23
2023-05-05T10:48:37.117Z,41.02
2023-05-05T10:51:27.708Z,40.84
2023-05-05T10:54:14.746Z,40.59
2023-05-05T10:56:44.806Z,40.89
2023-05-05T10:59:43.526Z,39.86
2023-05-05T11:02:25.504Z,40.11
2023-05-05T11:05:15.105Z,37.94
2023-05-05T11:07:44.023Z,36.56
2023-05-05T11:10:14.065Z,37.88
2023-05-05T11:13:21.323Z,37.90
2023-05-05T11:15:50.767Z,35.69
2023-05-05T11:18:33.917Z,35.50
2023-05-05T11:21:20.123Z,35.98
2023-05-05T11:23:52.569Z,33.98
2023-05-05T11:26:50.457Z,34.49
2023-05-05T11:29:19.805Z,34.71
2023-05-05T11:32:14.196Z,33.71
2023-05-05T11:34:50.105Z,35.57
2023-05-05T11:37:18.365Z,35.25
2023-05-05T11:40:00.784Z,33.93
2023-05-05T11:42:30.225Z,35.44
2023-05-05T11:45:00.241Z,36.43
2023-05-05T11:47:30.493Z,39.48
2023-05-05T11:49:58.819Z,38.37
2023-05-05T11:52:28.450Z,38.90
2023-05-05T11:55:03.722Z,37.94
2023-05-05T11:57:32.146Z,36.41
2023-05-05T12:00:04.384Z,37.19
2023-05-05T12:02:35.883Z,36.55
2023-05-05T12:05:04.409Z,34.94
2023-05-05T12:07:33.551Z,33.59
2023-05-05T12:10:01.929Z,33.50
2023-05-05T12:12:37.612Z,34.77
2023-05-05T12:15:09.186Z,34.53
2023-05-05T12:17:40.073Z,33.58
2023-05-05T12:20:10.353Z,32.24
2023-05-05T12:22:38.867Z,32.81
2023-05-05T12:25:09.153Z,33.41
2023-05-05T12:27:37.329Z,34.44
2023-05-05T12:30:15.607Z,35.50
2023-05-05T12:32:44.704Z,35.91
2023-05-05T12:35:13.896Z,36.23
2023-05-05T12:37:42.490Z,36.03
2023-05-05T12:40:45.980Z,35.98
2023-05-05T12:43:35.703Z,34.49
2023-05-05T12:46:08.846Z,33.16
2023-05-05T12:48:39.116Z,31.42
2023-05-05T12:51:19.892Z,33.16
2023-05-05T12:53:49.316Z,31.83
2023-05-05T12:56:36.071Z,32.26
2023-05-05T12:59:05.789Z,33.03
2023-05-05T13:01:34.186Z,32.91
2023-05-05T13:04:10.689Z,31.12
2023-05-05T13:06:39.478Z,30.84
2023-05-05T13:09:08.928Z,30.41
2023-05-05T13:11:39.262Z,28.81
2023-05-05T13:14:08.664Z,29.85
2023-05-05T13:16:36.902Z,30.91
2023-05-05T13:19:05.096Z,31.22
2023-05-05T13:21:33.314Z,32.05
2023-05-05T13:24:08.573Z,33.60
2023-05-05T13:26:50.851Z,33.92
2023-05-05T13:29:19.432Z,34.19
2023-05-05T13:31:47.556Z,33.89
2023-05-05T13:34:15.643Z,33.52
2023-05-05T13:36:43.699Z,33.36
2023-05-05T13:39:12.519Z,34.44
2023-05-05T13:41:40.746Z,34.64
2023-05-05T13:44:10.264Z,34.96
2023-05-05T13:46:38.349Z,35.67
2023-05-05T13:49:06.377Z,35.44
2023-05-05T13:51:34.980Z,36.28
2023-05-05T13:54:03.300Z,35.41
2023-05-05T13:56:31.652Z,35.51
2023-05-05T13:58:59.697Z,36.35
2023-05-05T14:01:29.382Z,36.09
2023-05-05T14:03:58.402Z,35.53
2023-05-05T14:06:27.637Z,35.43
2023-05-05T14:08:56.935Z,34.79
2023-05-05T14:11:25.031Z,34.30
2023-05-05T14:13:53.057Z,34.54
2023-05-05T14:16:21.215Z,34.91
2023-05-05T14:18:50.836Z,34.59
2023-05-05T14:21:18.816Z,35.53
2023-05-05T14:23:46.893Z,34.55
2023-05-05T14:26:14.990Z,34.61
2023-05-05T14:31:11.520Z,34.55
2023-05-05T14:33:39.513Z,34.07
2023-05-05T14:36:09.813Z,34.73
2023-05-05T14:38:38.040Z,36.30
2023-05-05T14:41:06.669Z,35.31
2023-05-05T14:43:34.852Z,34.86
2023-05-05T14:46:06.640Z,35.68
2023-05-05T14:48:35.134Z,36.08
2023-05-05T14:51:04.218Z,35.81
2023-05-05T14:53:33.601Z,37.12
2023-05-05T14:56:02.146Z,37.10
2023-05-05T14:58:31.055Z,36.84
2023-05-05T15:01:00.430Z,36.29
2023-05-05T15:03:28.730Z,36.31
2023-05-05T15:05:56.858Z,36.67
2023-05-05T15:08:24.950Z,36.66
2023-05-05T15:10:54.266Z,37.25
2023-05-05T15:13:22.318Z,37.10
2023-05-05T15:15:51.196Z,37.15
2023-05-05T15:18:19.994Z,37.78
2023-05-05T15:20:47.976Z,37.07
2023-05-05T15:23:16.058Z,37.73
2023-05-05T15:25:44.328Z,37.24
2023-05-05T15:28:13.679Z,36.54
2023-05-05T15:30:42.011Z,35.95
2023-05-05T15:33:10.008Z,35.97
2023-05-05T15:35:37.973Z,36.41
2023-05-05T15:38:06.276Z,36.44
2023-05-05T15:40:34.386Z,37.66
2023-05-05T15:43:02.406Z,36.80
2023-05-05T15:45:31.704Z,36.53
2023-05-05T15:47:59.654Z,37.33
2023-05-05T15:50:27.775Z,37.88
2023-05-05T15:52:56.910Z,37.20
2023-05-05T15:55:25.453Z,36.97
2023-05-05T15:57:53.572Z,36.98
2023-05-05T16:00:25.656Z,36.76
2023-05-05T16:02:55.142Z,37.53
2023-05-05T16:05:23.350Z,38.45
2023-05-05T16:07:52.461Z,38.82
2023-05-05T16:10:21.051Z,38.81
2023-05-05T16:12:49.509Z,39.12
2023-05-05T16:15:17.783Z,39.21
2023-05-05T16:17:45.836Z,40.71
2023-05-05T16:20:15.740Z,40.46
2023-05-05T16:22:45.379Z,40.24
2023-05-05T16:25:13.475Z,41.01
2023-05-05T16:27:41.414Z,41.13
2023-05-05T16:30:15.257Z,40.47
2023-05-05T16:32:43.533Z,41.24
2023-05-05T16:35:12.122Z,40.59
2023-05-05T16:37:42.865Z,41.16
2023-05-05T16:40:11.919Z,41.11
2023-05-05T16:42:39.907Z,41.19
2023-05-05T16:45:09.636Z,41.53
2023-05-05T16:47:37.947Z,42.02
2023-05-05T16:50:07.221Z,41.55
2023-05-05T16:52:35.348Z,42.36
2023-05-05T16:55:05.082Z,42.43
2023-05-05T16:57:33.223Z,43.63
2023-05-05T17:00:01.205Z,43.69
2023-05-05T17:02:29.606Z,43.17
2023-05-05T17:04:59.890Z,43.50
2023-05-05T17:07:28.331Z,43.40
2023-05-05T17:09:56.419Z,43.96
2023-05-05T17:12:26.989Z,44.61
2023-05-05T17:14:55.001Z,44.15
2023-05-05T17:17:23.034Z,43.93
2023-05-05T17:19:50.987Z,45.46
2023-05-05T17:22:19.041Z,45.53
2023-05-05T17:24:46.950Z,45.16
2023-05-05T17:27:14.916Z,45.07
2023-05-05T17:29:44.858Z,44.91
2023-05-05T17:32:13.101Z,45.37
2023-05-05T17:34:41.157Z,45.61
2023-05-05T17:37:09.789Z,46.34
2023-05-05T17:39:37.773Z,46.06
2023-05-05T17:42:06.222Z,45.72
2023-05-05T17:44:34.239Z,46.40
2023-05-05T17:47:03.908Z,46.90
2023-05-05T17:49:31.824Z,48.32
2023-05-05T17:51:59.723Z,48.92
2023-05-05T17:54:27.661Z,48.75
2023-05-05T17:56:57.725Z,48.79
2023-05-05T17:59:26.060Z,49.15
2023-05-05T18:01:54.033Z,49.45
2023-05-05T18:04:23.885Z,49.96
2023-05-05T18:06:51.802Z,50.53
2023-05-05T18:09:20.724Z,51.07
2023-05-05T18:11:48.806Z,51.62
2023-05-05T18:14:18.698Z,51.47
2023-05-05T18:16:49.717Z,52.39
2023-05-05T18:19:18.200Z,52.72
2023-05-05T18:21:47.846Z,51.74
2023-05-05T18:24:20.363Z,52.23
2023-05-05T18:26:50.373Z,52.60
2023-05-05T18:29:18.441Z,52.95
2023-05-05T18:31:48.381Z,53.79
2023-05-05T18:34:16.998Z,54.69
2023-05-05T18:36:45.307Z,54.83
2023-05-05T18:39:15.344Z,55.28
2023-05-05T18:41:43.302Z,56.12
2023-05-05T18:44:11.407Z,55.27
2023-05-05T18:46:39.352Z,56.38
2023-05-05T18:49:07.431Z,56.32
2023-05-05T18:51:35.477Z,56.34
2023-05-05T18:54:03.445Z,56.42
2023-05-05T18:56:32.956Z,57.93
2023-05-05T18:59:01.030Z,58.08
2023-05-05T19:01:34.939Z,57.10
2023-05-05T19:04:02.986Z,57.11
2023-05-05T19:06:32.984Z,57.21
2023-05-05T19:09:01.010Z,56.94
2023-05-05T19:11:31.130Z,57.68
2023-05-05T19:14:00.614Z,57.20
2023-05-05T19:16:30.130Z,57.08
2023-05-05T19:19:00.685Z,58.87
2023-05-05T19:21:28.918Z,57.66
2023-05-05T19:23:56.964Z,58.52
2023-05-05T19:26:26.210Z,57.17
2023-05-05T19:28:54.233Z,56.86
2023-05-05T19:31:27.524Z,56.79
2023-05-05T19:34:00.483Z,58.78
2023-05-05T19:36:28.798Z,57.13
2023-05-05T19:38:57.023Z,58.13
2023-05-05T19:41:27.065Z,58.06
2023-05-05T19:43:55.014Z,59.36
2023-05-05T19:46:28.153Z,60.14
2023-05-05T19:48:56.156Z,62.06
2023-05-05T19:51:24.086Z,63.26
2023-05-05T19:53:51.998Z,62.10
2023-05-05T19:56:20.177Z,62.54
2023-05-05T19:58:59.157Z,63.90
2023-05-05T20:01:29.020Z,62.61
2023-05-05T20:03:58.090Z,62.53
2023-05-05T20:06:26.940Z,61.34
2023-05-05T20:08:55.437Z,61.41
2023-05-05T20:11:23.563Z,60.98
2023-05-05T20:13:52.049Z,61.02
2023-05-05T20:16:22.884Z,59.93
2023-05-05T20:18:52.286Z,61.87
2023-05-05T20:21:21.080Z,61.83
2023-05-05T20:23:49.141Z,61.92
2023-05-05T20:26:17.081Z,62.48
2023-05-05T20:28:45.749Z,62.36
2023-05-05T20:31:15.436Z,62.21
2023-05-05T20:33:43.586Z,62.73
2023-05-05T20:36:13.274Z,61.94
2023-05-05T20:38:41.222Z,60.94
2023-05-05T20:41:09.358Z,60.39
2023-05-05T20:43:37.439Z,61.46
2023-05-05T20:46:05.847Z,60.96
2023-05-05T20:48:33.981Z,61.94
2023-05-05T20:51:04.686Z,61.66
2023-05-05T20:53:34.084Z,61.06
2023-05-05T20:56:02.231Z,61.60
2023-05-05T20:58:30.982Z,61.71
2023-05-05T21:00:59.267Z,61.42
2023-05-05T21:03:27.363Z,61.67
2023-05-05T21:05:55.575Z,62.87
2023-05-05T21:08:23.707Z,62.38
2023-05-05T21:10:54.530Z,63.62
2023-05-05T21:13:23.021Z,62.32
2023-05-05T21:15:51.374Z,62.64
2023-05-05T21:18:19.294Z,63.35
2023-05-05T21:20:47.241Z,64.09
2023-05-05T21:23:15.268Z,61.99
2023-05-05T21:25:43.265Z,62.68
2023-05-05T21:28:12.562Z,62.18
2023-05-05T21:30:40.487Z,63.07
2023-05-05T21:33:08.509Z,62.14
2023-05-05T21:35:36.497Z,62.19
2023-05-05T21:38:04.527Z,62.63
2023-05-05T21:40:32.792Z,62.38
2023-05-05T21:43:03.101Z,61.69
2023-05-05T21:45:32.554Z,63.10
2023-05-05T21:48:02.760Z,62.36
2023-05-05T21:50:30.739Z,63.55
2023-05-05T21:52:58.683Z,64.63
2023-05-05T21:55:26.620Z,65.77
2023-05-05T21:57:54.596Z,64.34
2023-05-05T22:00:23.955Z,63.94
2023-05-05T22:02:53.405Z,65.03
2023-05-05T22:05:23.656Z,63.65
2023-05-05T22:07:51.771Z,63.37
2023-05-05T22:10:19.813Z,64.52
2023-05-05T22:12:47.947Z,63.56
2023-05-05T22:15:19.133Z,62.12
2023-05-05T22:17:47.437Z,63.66
2023-05-05T22:20:16.971Z,63.24
2023-05-05T22:22:45.951Z,63.06
2023-05-05T22:25:14.067Z,63.41
2023-05-05T22:27:42.285Z,64.77
2023-05-05T22:30:13.827Z,66.09
2023-05-05T22:32:43.397Z,64.51
2023-05-05T22:35:11.798Z,65.22
2023-05-05T22:37:41.961Z,65.93
2023-05-05T22:40:10.805Z,65.04
2023-05-05T22:42:42.018Z,67.75
2023-05-05T22:45:10.808Z,68.63
2023-05-05T22:47:39.052Z,71.32
2023-05-05T22:50:08.716Z,69.31
2023-05-05T22:52:39.156Z,69.52
2023-05-05T22:55:09.449Z,70.14
2023-05-05T22:57:37.652Z,70.70
2023-05-05T23:00:07.084Z,70.13
2023-05-05T23:02:35.143Z,70.99
2023-05-05T23:05:03.290Z,73.86
2023-05-05T23:07:32.239Z,73.05
2023-05-05T23:10:00.299Z,74.30
2023-05-05T23:12:29.740Z,76.60
2023-05-05T23:14:57.677Z,78.34
2023-05-05T23:17:25.665Z,84.29
2023-05-05T23:19:53.863Z,85.87
2023-05-05T23:22:21.923Z,89.38
2023-05-05T23:24:49.954Z,86.94
2023-05-05T23:27:17.969Z,88.48
2023-05-05T23:29:47.330Z,84.87
2023-05-05T23:32:18.417Z,87.90
2023-05-05T23:34:46.458Z,94.54
2023-05-05T23:37:14.921Z,93.67
2023-05-05T23:39:44.213Z,94.65
2023-05-05T23:42:12.262Z,94.88
2023-05-05T23:44:40.333Z,92.22
2023-05-05T23:47:09.875Z,93.88
2023-05-05T23:49:38.557Z,94.31
2023-05-05T23:52:06.535Z,95.71
2023-05-05T23:54:34.514Z,96.36
2023-05-05T23:57:02.474Z,97.77
2023-05-05T23:59:30.591Z,100.00
